KFKN/FKN METAR and TAF weather

Enter ICAO airport designator
Station Type Date Time Source
KFKN METAR 2022/06/25 23:35 UTC NOAA

KFKN 252335Z AUTO 12007KT 10SM CLR 27/17 A3012 RMK AO2 T02730170


Station Type Date Time Source
KFKN Decoded METAR 2022/06/25 23:35 UTC NOAA

Franklin / J B Rose, VA, United States (KFKN) 36-42N 076-54W
Jun 25, 2022 - 07:35 PM EDT / 2022.06.25 2335 UTC
Wind: from the ESE (120 degrees) at 8 MPH (7 KT):0
Visibility: 10 mile(s):0
Sky conditions: clear
Temperature: 81.1 F (27.3 C)
Dew Point: 62.6 F (17.0 C)
Relative Humidity: 53%
Pressure (altimeter): 30.12 in. Hg (1019 hPa)
ob: KFKN 252335Z AUTO 12007KT 10SM CLR 27/17 A3012 RMK AO2 T02730170
cycle: 23

Station Type Date Time Source
KFKN TAF UTC NOAA

Error!

Example: see airport list